Time;durP1;ratioP1;P1;durP2;ratioP2;P2;SDS_P1;SDS_P2;PMS_P1;PMS_P2;Temp;Humidity;BMP_temperature;BMP_pressure;BME280_temperature;BME280_humidity;BME280_pressure;Samples;Min_cycle;Max_cycle;Signal;HPM_P1;HPM_P2
2021/04/30 00:00:10;;;;;;;10.23;5.25;;;5.80;99.90;;;;;;5043037;28;20049;-81
2021/04/30 00:02:40;;;;;;;15.30;6.25;;;5.70;99.90;;;;;;5052056;28;20060;-81
2021/04/30 00:05:09;;;;;;;11.93;4.45;;;5.60;99.90;;;;;;5053502;28;20045;-81
2021/04/30 00:07:37;;;;;;;9.45;4.55;;;5.60;99.90;;;;;;5037659;28;20044;-81
2021/04/30 00:10:05;;;;;;;6.97;4.03;;;5.50;99.90;;;;;;5073235;28;20044;-81
2021/04/30 00:12:32;;;;;;;17.02;5.88;;;5.50;99.90;;;;;;5070806;28;20059;-81
2021/04/30 00:15:01;;;;;;;10.48;4.47;;;5.40;99.90;;;;;;5054286;28;20064;-81
2021/04/30 00:17:28;;;;;;;8.52;4.78;;;6.10;99.90;;;;;;5055680;28;20056;-81
2021/04/30 00:19:55;;;;;;;13.60;4.70;;;5.40;99.90;;;;;;5038568;28;20079;-82
2021/04/30 00:22:23;;;;;;;9.30;4.75;;;5.30;99.90;;;;;;5073857;28;20500;-81
2021/04/30 00:24:50;;;;;;;11.95;5.47;;;5.30;99.90;;;;;;5054938;28;20053;-82
2021/04/30 00:27:18;;;;;;;14.05;5.95;;;5.20;99.90;;;;;;5053007;28;20048;-81
2021/04/30 00:29:45;;;;;;;8.57;5.13;;;5.20;99.90;;;;;;5071850;28;20132;-81
2021/04/30 00:32:12;;;;;;;19.17;5.55;;;5.10;99.90;;;;;;5057239;28;20380;-81
2021/04/30 00:34:41;;;;;;;10.98;5.47;;;5.00;99.90;;;;;;5071416;28;20056;-81
2021/04/30 00:37:08;;;;;;;10.43;4.85;;;4.90;99.90;;;;;;5071757;28;20380;-81
2021/04/30 00:39:36;;;;;;;10.32;4.82;;;4.90;99.90;;;;;;5072702;28;20095;-81
2021/04/30 00:42:05;;;;;;;9.52;5.05;;;4.90;99.90;;;;;;5071635;28;20052;-81
2021/04/30 00:44:34;;;;;;;10.77;6.10;;;4.80;99.90;;;;;;5068223;28;20056;-81
2021/04/30 00:47:01;;;;;;;9.50;5.20;;;4.80;99.90;;;;;;5068485;28;20057;-81
2021/04/30 00:49:29;;;;;;;10.45;5.03;;;4.70;99.90;;;;;;5071302;28;20049;-81
2021/04/30 00:51:56;;;;;;;13.85;5.80;;;4.70;99.90;;;;;;5037448;28;20044;-80
2021/04/30 00:54:23;;;;;;;21.58;8.27;;;4.70;99.90;;;;;;5054659;28;20056;-81
2021/04/30 00:56:51;;;;;;;10.65;4.85;;;5.20;99.90;;;;;;5075066;28;20060;-81
2021/04/30 00:59:20;;;;;;;11.52;5.65;;;4.60;99.90;;;;;;5056734;28;20053;-81
2021/04/30 01:01:48;;;;;;;13.02;5.95;;;5.50;99.90;;;;;;5056277;28;20049;-83
2021/04/30 01:04:16;;;;;;;20.48;5.80;;;5.40;99.90;;;;;;5058124;28;20068;-81
2021/04/30 01:06:44;;;;;;;11.65;5.50;;;4.60;99.90;;;;;;5042311;28;20044;-81
2021/04/30 01:09:13;;;;;;;12.73;5.25;;;4.50;99.90;;;;;;5075663;28;20052;-81
2021/04/30 01:11:40;;;;;;;11.45;5.82;;;4.70;99.90;;;;;;5057726;28;20060;-80
2021/04/30 01:14:08;;;;;;;10.77;5.57;;;4.60;99.90;;;;;;5061937;28;20059;-81
2021/04/30 01:16:35;;;;;;;9.13;5.93;;;4.40;99.90;;;;;;5056257;28;20048;-85
2021/04/30 01:19:02;;;;;;;13.70;6.00;;;4.30;99.90;;;;;;5072084;28;20621;-80
2021/04/30 01:21:30;;;;;;;17.95;7.38;;;4.30;99.90;;;;;;5057430;28;20059;-81
2021/04/30 01:23:57;;;;;;;17.08;7.38;;;4.20;99.90;;;;;;5074190;28;20053;-84
2021/04/30 01:26:25;;;;;;;17.25;7.72;;;4.10;99.90;;;;;;5074302;28;20044;-80
2021/04/30 01:28:52;;;;;;;13.10;6.93;;;4.10;99.90;;;;;;5056341;28;20052;-80
2021/04/30 01:31:19;;;;;;;12.73;7.72;;;4.80;99.90;;;;;;5073687;28;20056;-81
2021/04/30 01:33:54;;;;;;;16.23;8.82;;;4.00;99.90;;;;;;5071171;28;20071;-81
2021/04/30 01:36:22;;;;;;;18.05;7.40;;;4.00;99.90;;;;;;5055814;28;20118;-81
2021/04/30 01:38:49;;;;;;;12.63;6.50;;;3.90;99.90;;;;;;5054737;28;20052;-81
2021/04/30 01:41:21;;;;;;;12.70;6.00;;;3.80;99.90;;;;;;5041048;28;20069;-80
2021/04/30 01:43:48;;;;;;;9.43;6.10;;;4.30;99.90;;;;;;5072720;28;20427;-80
2021/04/30 01:46:16;;;;;;;12.50;6.15;;;3.90;99.90;;;;;;5038929;28;20052;-81
2021/04/30 01:48:47;;;;;;;14.35;6.65;;;3.80;99.90;;;;;;5056583;28;20381;-80
2021/04/30 01:51:14;;;;;;;13.68;5.93;;;3.80;99.90;;;;;;5058566;28;20052;-82
2021/04/30 01:53:42;;;;;;;12.77;7.65;;;4.00;99.90;;;;;;5075671;28;20090;-80
2021/04/30 01:56:10;;;;;;;12.35;6.22;;;3.70;99.90;;;;;;5075119;28;20078;-80
2021/04/30 01:58:40;;;;;;;14.82;8.55;;;3.60;99.90;;;;;;5057806;28;20056;-81
2021/04/30 02:01:09;;;;;;;12.23;6.18;;;4.30;99.90;;;;;;5016883;28;20052;-81
2021/04/30 02:03:37;;;;;;;10.38;5.82;;;3.60;99.90;;;;;;5069249;28;20048;-82
2021/04/30 02:06:06;;;;;;;10.70;5.50;;;3.60;99.90;;;;;;5077438;28;20052;-82
2021/04/30 02:08:33;;;;;;;11.88;5.43;;;3.50;99.90;;;;;;5076431;28;20063;-81
2021/04/30 02:11:04;;;;;;;12.90;6.53;;;3.50;99.90;;;;;;5053714;28;20119;-80
2021/04/30 02:13:49;;;;;;;12.90;6.47;;;3.50;99.90;;;;;;5058227;28;20071;-82
2021/04/30 02:16:17;;;;;;;16.95;7.00;;;3.50;99.90;;;;;;5078365;28;20048;-81
2021/04/30 02:18:46;;;;;;;10.32;6.55;;;4.00;99.90;;;;;;5055845;28;20061;-81
2021/04/30 02:21:14;;;;;;;15.75;6.50;;;3.40;99.90;;;;;;5050847;28;20057;-81
2021/04/30 02:23:42;;;;;;;13.85;7.13;;;3.40;99.90;;;;;;5062690;28;20048;-81
2021/04/30 02:26:10;;;;;;;12.75;6.57;;;3.30;99.90;;;;;;5076933;28;20059;-82
2021/04/30 02:28:37;;;;;;;14.38;7.30;;;3.30;99.90;;;;;;5058267;28;20067;-81
2021/04/30 02:31:05;;;;;;;12.32;6.90;;;3.30;99.90;;;;;;5057847;28;20055;-81
2021/04/30 02:33:32;;;;;;;15.70;7.40;;;3.20;99.90;;;;;;5059359;28;20063;-81
2021/04/30 02:35:59;;;;;;;13.95;7.07;;;4.10;99.90;;;;;;5044994;28;20400;-81
2021/04/30 02:38:28;;;;;;;14.23;6.95;;;3.20;99.90;;;;;;5058959;28;20055;-81
2021/04/30 02:40:56;;;;;;;19.92;7.10;;;4.20;99.90;;;;;;5076909;28;20044;-84
2021/04/30 02:43:24;;;;;;;19.40;8.45;;;3.10;99.90;;;;;;5076779;28;20041;-80
2021/04/30 02:45:51;;;;;;;16.25;8.60;;;4.20;99.90;;;;;;5057489;28;20053;-82
2021/04/30 02:48:30;;;;;;;13.32;7.72;;;3.10;99.90;;;;;;5057402;28;20045;-84
2021/04/30 02:50:59;;;;;;;33.08;10.50;;;3.10;99.90;;;;;;5041950;28;20056;-81
2021/04/30 02:53:27;;;;;;;19.10;8.10;;;3.00;99.90;;;;;;5076400;28;20055;-83
2021/04/30 02:55:54;;;;;;;18.20;8.32;;;3.00;99.90;;;;;;5058740;28;20044;-80
2021/04/30 02:58:22;;;;;;;13.55;7.53;;;3.00;99.90;;;;;;5054828;28;20049;-80
2021/04/30 03:00:49;;;;;;;18.38;9.95;;;2.90;99.90;;;;;;5069941;28;20064;-81
2021/04/30 03:03:16;;;;;;;15.63;8.45;;;2.90;99.90;;;;;;5076799;28;20060;-81
2021/04/30 03:05:44;;;;;;;16.50;8.85;;;2.90;99.90;;;;;;5057757;28;20057;-81
2021/04/30 03:08:12;;;;;;;13.57;7.40;;;2.90;99.90;;;;;;5075776;28;20056;-82
2021/04/30 03:10:39;;;;;;;14.18;7.30;;;2.80;99.90;;;;;;5069894;28;20060;-83
2021/04/30 03:13:07;;;;;;;15.35;8.00;;;2.80;99.90;;;;;;5052520;28;20570;-82
2021/04/30 03:15:34;;;;;;;15.57;8.00;;;2.80;99.90;;;;;;5058768;28;20033;-81
2021/04/30 03:18:03;;;;;;;15.52;8.68;;;2.80;99.90;;;;;;5067987;28;20075;-80
2021/04/30 03:20:31;;;;;;;19.27;6.97;;;2.80;99.90;;;;;;5058291;28;20063;-83
2021/04/30 03:22:58;;;;;;;22.15;7.93;;;2.80;99.90;;;;;;5075191;28;20044;-81
2021/04/30 03:25:26;;;;;;;14.98;6.72;;;2.80;99.90;;;;;;5063166;28;20419;-81
2021/04/30 03:27:53;;;;;;;17.33;8.32;;;2.80;99.90;;;;;;5076029;28;20040;-79
2021/04/30 03:30:21;;;;;;;18.35;7.47;;;2.80;99.90;;;;;;5076683;28;20059;-82
2021/04/30 03:32:48;;;;;;;13.27;7.18;;;2.80;99.90;;;;;;5064592;28;20052;-80
2021/04/30 03:35:18;;;;;;;17.65;9.50;;;2.80;99.90;;;;;;5058576;28;20052;-80
2021/04/30 03:37:46;;;;;;;16.17;7.70;;;2.80;99.90;;;;;;5061540;28;20047;-80
2021/04/30 03:40:15;;;;;;;12.02;7.82;;;2.80;99.90;;;;;;5058892;28;20064;-80
2021/04/30 03:42:42;;;;;;;13.88;7.78;;;2.80;99.90;;;;;;5075183;28;20055;-80
2021/04/30 03:45:10;;;;;;;21.15;9.10;;;2.80;99.90;;;;;;5069597;28;20155;-80
2021/04/30 03:47:38;;;;;;;17.10;7.75;;;2.80;99.90;;;;;;5057933;28;20076;-80
2021/04/30 03:50:22;;;;;;;18.63;8.32;;;2.80;99.90;;;;;;5056467;28;20058;-80
2021/04/30 03:52:49;;;;;;;18.05;8.68;;;2.90;99.90;;;;;;5052755;28;20423;-81
2021/04/30 03:55:17;;;;;;;19.48;8.13;;;2.80;99.90;;;;;;5050619;28;20044;-81
2021/04/30 03:57:44;;;;;;;17.10;7.97;;;2.80;99.90;;;;;;5067292;28;20056;-81
2021/04/30 04:00:12;;;;;;;21.52;9.18;;;2.80;99.90;;;;;;5042484;28;20407;-80
2021/04/30 04:02:40;;;;;;;19.15;10.55;;;2.80;99.90;;;;;;5068770;28;20689;-81
2021/04/30 04:05:07;;;;;;;24.95;10.00;;;2.80;99.90;;;;;;5038706;28;20057;-82
2021/04/30 04:07:35;;;;;;;23.80;9.85;;;2.80;99.90;;;;;;5054014;28;20055;-82
2021/04/30 04:10:03;;;;;;;16.38;8.55;;;2.80;99.90;;;;;;5051198;28;20131;-80
2021/04/30 04:12:30;;;;;;;15.30;8.07;;;2.80;99.90;;;;;;5068356;28;20057;-81
2021/04/30 04:14:57;;;;;;;14.00;7.70;;;2.90;99.90;;;;;;5069193;28;20064;-80
2021/04/30 04:17:25;;;;;;;18.55;8.30;;;2.90;99.90;;;;;;5065758;28;20400;-80
2021/04/30 04:19:54;;;;;;;12.68;7.90;;;2.90;99.90;;;;;;5051388;28;20060;-80
2021/04/30 04:22:22;;;;;;;13.25;7.53;;;2.90;99.90;;;;;;5050057;28;20053;-80
2021/04/30 04:24:49;;;;;;;16.05;9.02;;;2.90;99.90;;;;;;5067175;28;20056;-81
2021/04/30 04:27:17;;;;;;;17.35;9.20;;;2.80;99.90;;;;;;5033677;28;20061;-81
2021/04/30 04:29:45;;;;;;;22.40;8.35;;;2.80;99.90;;;;;;5036056;28;20051;-84
2021/04/30 04:32:13;;;;;;;18.77;10.07;;;3.80;99.90;;;;;;5071843;28;20053;-80
2021/04/30 04:34:40;;;;;;;19.75;7.97;;;2.80;99.90;;;;;;5053890;28;20419;-81
2021/04/30 04:37:08;;;;;;;21.90;10.23;;;2.80;99.90;;;;;;5071173;28;20053;-80
2021/04/30 04:39:35;;;;;;;18.35;9.13;;;2.80;99.90;;;;;;5071691;28;20134;-80
2021/04/30 04:42:04;;;;;;;18.40;9.40;;;2.80;99.90;;;;;;5070793;28;20052;-81
2021/04/30 04:44:32;;;;;;;15.35;8.60;;;2.80;99.90;;;;;;5071722;28;20075;-80
2021/04/30 04:47:02;;;;;;;15.68;8.63;;;2.80;99.90;;;;;;5031890;28;20053;-80
2021/04/30 04:49:29;;;;;;;18.10;8.27;;;2.80;99.90;;;;;;5061782;28;20633;-81
2021/04/30 04:51:57;;;;;;;16.92;10.07;;;2.80;99.90;;;;;;5031130;28;20039;-80
2021/04/30 04:54:26;;;;;;;20.05;8.48;;;2.70;99.90;;;;;;5050628;28;20444;-81
2021/04/30 04:56:56;;;;;;;21.98;8.52;;;2.70;99.90;;;;;;5068138;28;20584;-81
2021/04/30 04:59:24;;;;;;;15.10;8.88;;;3.20;99.90;;;;;;5040338;28;20053;-80
2021/04/30 05:01:51;;;;;;;21.52;8.73;;;2.70;99.90;;;;;;5063624;28;20048;-80
2021/04/30 05:04:19;;;;;;;20.23;10.73;;;2.70;99.90;;;;;;5066238;28;20056;-80
2021/04/30 05:06:46;;;;;;;24.13;10.48;;;2.70;99.90;;;;;;5067664;28;20499;-80
2021/04/30 05:09:13;;;;;;;21.17;11.27;;;2.70;99.90;;;;;;5068854;28;20053;-81
2021/04/30 05:11:40;;;;;;;19.98;10.68;;;2.80;99.90;;;;;;5068510;28;20063;-84
2021/04/30 05:14:08;;;;;;;20.92;9.45;;;2.80;99.90;;;;;;5051264;28;20059;-80
2021/04/30 05:16:35;;;;;;;20.38;10.85;;;2.80;99.90;;;;;;5057721;28;20512;-81
2021/04/30 05:19:03;;;;;;;23.88;11.93;;;2.90;99.90;;;;;;5069473;28;20056;-81
2021/04/30 05:21:31;;;;;;;21.45;10.65;;;2.80;99.90;;;;;;5045506;28;20052;-80
2021/04/30 05:23:59;;;;;;;35.70;10.98;;;2.90;99.90;;;;;;5064976;28;20077;-82
2021/04/30 05:26:29;;;;;;;24.00;10.55;;;2.90;99.90;;;;;;5068360;28;20056;-82
2021/04/30 05:28:58;;;;;;;25.33;10.90;;;3.00;99.90;;;;;;5035393;28;20060;-80
2021/04/30 05:31:26;;;;;;;31.80;11.55;;;3.00;99.90;;;;;;5060401;28;20057;-81
2021/04/30 05:33:54;;;;;;;17.65;10.02;;;3.00;99.90;;;;;;5056977;28;20545;-81
2021/04/30 05:36:22;;;;;;;22.60;10.90;;;3.10;99.90;;;;;;5068610;28;20052;-83
2021/04/30 05:38:50;;;;;;;26.85;10.90;;;3.10;99.90;;;;;;5050766;28;20052;-81
2021/04/30 05:41:17;;;;;;;22.60;10.80;;;3.20;99.90;;;;;;5049085;28;20048;-80
2021/04/30 05:43:45;;;;;;;27.52;12.00;;;3.30;99.90;;;;;;5068704;28;20055;-80
2021/04/30 05:46:12;;;;;;;19.35;11.68;;;3.30;99.90;;;;;;5050413;28;20060;-80
2021/04/30 05:48:40;;;;;;;22.70;12.70;;;3.40;99.90;;;;;;5061927;28;20127;-79
2021/04/30 05:51:08;;;;;;;20.48;10.98;;;3.50;99.90;;;;;;5064922;28;20052;-81
2021/04/30 05:53:35;;;;;;;20.75;10.00;;;3.60;99.90;;;;;;5050089;28;20419;-84
2021/04/30 05:56:16;;;;;;;20.17;10.93;;;3.70;99.90;;;;;;5041598;28;20059;-81
2021/04/30 05:58:43;;;;;;;21.45;11.20;;;3.80;99.90;;;;;;5061038;28;20049;-81
2021/04/30 06:01:10;;;;;;;22.40;12.60;;;3.80;99.90;;;;;;5062515;28;20068;-81
2021/04/30 06:03:37;;;;;;;17.98;9.65;;;3.90;99.90;;;;;;5069304;28;20067;-81
2021/04/30 06:06:04;;;;;;;20.63;11.20;;;4.10;99.90;;;;;;5068553;28;20053;-81
2021/04/30 06:08:32;;;;;;;23.35;12.05;;;4.10;99.90;;;;;;5026566;28;20056;-82
2021/04/30 06:10:59;;;;;;;17.50;10.10;;;4.20;99.90;;;;;;5068220;28;20392;-81
2021/04/30 06:13:26;;;;;;;27.23;11.52;;;4.30;99.90;;;;;;5069075;28;20044;-81
2021/04/30 06:15:53;;;;;;;20.02;10.77;;;4.40;99.90;;;;;;5063955;28;20403;-81
2021/04/30 06:18:23;;;;;;;20.20;11.73;;;4.60;99.90;;;;;;5047541;28;20040;-80
2021/04/30 06:20:51;;;;;;;19.63;12.75;;;4.50;99.90;;;;;;5050346;28;20047;-81
2021/04/30 06:23:18;;;;;;;22.55;11.95;;;4.60;99.90;;;;;;5065944;28;20053;-81
2021/04/30 06:25:46;;;;;;;21.65;11.18;;;4.70;99.90;;;;;;5049385;28;20051;-80
2021/04/30 06:28:14;;;;;;;18.33;9.35;;;4.80;99.90;;;;;;5066409;28;20055;-81
2021/04/30 06:30:41;;;;;;;23.95;11.68;;;4.90;99.90;;;;;;5064999;28;20056;-80
2021/04/30 06:33:09;;;;;;;21.77;10.15;;;4.90;99.90;;;;;;5066837;28;20060;-81
2021/04/30 06:35:37;;;;;;;17.98;11.68;;;5.00;99.90;;;;;;5048900;28;20052;-81
2021/04/30 06:38:08;;;;;;;16.85;9.75;;;5.10;99.90;;;;;;5065743;28;20048;-81
2021/04/30 06:40:35;;;;;;;14.90;8.70;;;5.20;99.90;;;;;;5048758;28;20057;-83
2021/04/30 06:43:03;;;;;;;14.20;8.57;;;5.40;99.90;;;;;;5048136;28;20076;-81
2021/04/30 06:45:31;;;;;;;15.00;7.95;;;5.50;99.90;;;;;;5069249;28;20052;-83
2021/04/30 06:47:59;;;;;;;20.25;8.63;;;5.60;99.90;;;;;;5047646;28;20055;-81
2021/04/30 06:50:26;;;;;;;16.80;8.55;;;5.70;99.90;;;;;;5067643;28;20045;-81
2021/04/30 06:52:54;;;;;;;14.65;7.60;;;5.80;99.90;;;;;;5067245;28;20051;-80
2021/04/30 06:55:21;;;;;;;13.75;7.13;;;5.90;99.90;;;;;;5050040;28;20048;-81
2021/04/30 06:57:51;;;;;;;18.75;9.10;;;6.50;99.90;;;;;;5060391;28;20057;-82
2021/04/30 07:00:18;;;;;;;21.02;7.60;;;6.10;99.90;;;;;;5047703;28;20060;-81
2021/04/30 07:02:49;;;;;;;23.73;8.98;;;6.20;99.90;;;;;;5067015;28;20056;-84
2021/04/30 07:05:18;;;;;;;18.13;8.98;;;6.20;99.90;;;;;;5027066;28;20056;-82
2021/04/30 07:07:45;;;;;;;20.65;9.50;;;6.40;99.90;;;;;;5064045;28;20063;-82
2021/04/30 07:10:12;;;;;;;23.38;9.82;;;6.50;99.90;;;;;;5045602;28;20060;-83
2021/04/30 07:12:40;;;;;;;18.00;8.55;;;6.60;99.90;;;;;;5063758;28;20060;-83
2021/04/30 07:15:08;;;;;;;13.70;7.70;;;6.70;99.90;;;;;;5031613;28;20562;-83
2021/04/30 07:17:35;;;;;;;20.17;7.25;;;6.80;99.90;;;;;;5063002;28;20052;-82
2021/04/30 07:20:04;;;;;;;21.27;7.25;;;6.90;99.90;;;;;;5031923;28;20052;-83
2021/04/30 07:22:33;;;;;;;17.00;8.25;;;6.90;99.90;;;;;;5049710;28;20049;-82
2021/04/30 07:25:00;;;;;;;14.77;6.93;;;7.10;99.90;;;;;;5066387;28;20496;-85
2021/04/30 07:27:29;;;;;;;17.67;7.78;;;7.10;99.90;;;;;;5062736;28;20515;-84
2021/04/30 07:29:56;;;;;;;21.00;8.02;;;7.20;99.90;;;;;;5047217;28;20049;-83
2021/04/30 07:32:24;;;;;;;15.40;6.20;;;7.30;99.90;;;;;;5041005;28;20075;-84
2021/04/30 07:34:52;;;;;;;19.40;6.28;;;7.40;99.90;;;;;;5066797;28;20048;-83
2021/04/30 07:37:19;;;;;;;14.10;6.35;;;7.40;99.90;;;;;;5048462;28;20431;-83
2021/04/30 07:39:46;;;;;;;12.07;6.90;;;8.40;99.90;;;;;;5066610;28;20060;-83
2021/04/30 07:42:14;;;;;;;13.38;5.57;;;7.90;99.90;;;;;;5065977;28;20560;-83
2021/04/30 07:44:42;;;;;;;13.98;6.07;;;7.70;99.90;;;;;;5066093;28;20048;-83
2021/04/30 07:47:11;;;;;;;24.15;5.63;;;7.80;99.90;;;;;;5044535;28;20412;-83
2021/04/30 07:49:40;;;;;;;11.48;5.68;;;7.90;99.90;;;;;;5033237;28;20327;-83
2021/04/30 07:52:07;;;;;;;12.93;6.97;;;8.30;99.90;;;;;;5064324;28;20471;-83
2021/04/30 07:54:36;;;;;;;8.93;5.05;;;8.00;99.90;;;;;;5053543;28;20067;-84
2021/04/30 07:57:05;;;;;;;20.58;6.30;;;8.10;99.90;;;;;;5054246;28;20108;-84
2021/04/30 07:59:32;;;;;;;11.05;5.75;;;8.20;99.90;;;;;;5057102;28;20061;-84
2021/04/30 08:02:00;;;;;;;12.60;5.70;;;8.30;99.90;;;;;;5069528;28;20056;-83
2021/04/30 08:04:29;;;;;;;12.77;4.60;;;8.30;99.90;;;;;;5043020;28;20045;-83
2021/04/30 08:06:56;;;;;;;38.38;5.60;;;9.30;99.90;;;;;;5057103;28;20056;-84
2021/04/30 08:09:24;;;;;;;6.57;4.05;;;8.50;99.90;;;;;;5071563;28;20215;-84
2021/04/30 08:11:51;;;;;;;9.07;3.80;;;8.50;99.90;;;;;;5036629;28;20052;-83
2021/04/30 08:14:19;;;;;;;11.50;4.72;;;8.60;99.90;;;;;;5051229;28;20045;-83
2021/04/30 08:16:46;;;;;;;11.13;5.43;;;8.60;99.90;;;;;;5053788;28;20044;-83
2021/04/30 08:19:14;;;;;;;14.65;4.68;;;9.00;99.90;;;;;;5069760;28;20057;-83
2021/04/30 08:21:42;;;;;;;12.10;4.20;;;9.00;99.90;;;;;;5050680;28;20056;-83
2021/04/30 08:24:10;;;;;;;7.97;4.10;;;8.80;99.90;;;;;;5070496;28;20055;-83
2021/04/30 08:26:37;;;;;;;8.93;4.90;;;8.90;99.90;;;;;;5033946;28;20499;-83
2021/04/30 08:29:05;;;;;;;13.90;4.72;;;8.90;99.90;;;;;;5047388;28;20051;-83
2021/04/30 08:31:35;;;;;;;11.60;4.35;;;8.90;99.90;;;;;;5054747;28;20047;-84
2021/04/30 08:34:03;;;;;;;12.23;5.82;;;9.00;99.90;;;;;;5075183;28;20060;-84
2021/04/30 08:36:32;;;;;;;8.65;3.35;;;9.00;99.90;;;;;;5063661;28;20056;-83
2021/04/30 08:39:04;;;;;;;7.38;3.95;;;9.00;99.90;;;;;;5086665;28;20066;-83
2021/04/30 08:41:36;;;;;;;20.92;4.57;;;9.10;99.90;;;;;;5080571;28;20471;-83
2021/04/30 08:44:04;;;;;;;13.80;4.07;;;10.20;99.90;;;;;;5063549;28;20483;-82
2021/04/30 08:46:33;;;;;;;12.00;3.35;;;9.30;99.90;;;;;;5059246;28;20045;-83
2021/04/30 08:49:11;;;;;;;5.65;4.28;;;9.40;99.90;;;;;;5070845;28;20052;-82
2021/04/30 08:51:40;;;;;;;12.10;4.07;;;9.50;99.90;;;;;;5052688;28;20037;-82
2021/04/30 08:54:09;;;;;;;11.18;4.32;;;9.50;99.90;;;;;;5036977;28;20044;-83
2021/04/30 08:56:44;;;;;;;10.32;6.53;;;9.60;99.90;;;;;;5053806;28;20610;-83
2021/04/30 08:59:22;;;;;;;13.77;4.93;;;9.70;99.90;;;;;;4983231;28;21025;-85
2021/04/30 09:01:50;;;;;;;8.95;3.17;;;9.80;99.90;;;;;;4973137;28;20050;-83
2021/04/30 09:04:19;;;;;;;11.85;3.47;;;9.80;99.90;;;;;;4989461;28;20058;-83
2021/04/30 09:06:46;;;;;;;10.38;3.30;;;9.90;99.90;;;;;;4970152;28;20074;-83
2021/04/30 09:09:15;;;;;;;6.55;3.03;;;9.90;99.90;;;;;;4968402;28;20059;-83
2021/04/30 09:11:51;;;;;;;9.23;3.72;;;10.00;99.90;;;;;;4970527;28;20061;-83
2021/04/30 09:14:20;;;;;;;7.78;2.75;;;10.00;99.90;;;;;;4973354;28;20051;-83
2021/04/30 09:17:19;;;;;;;6.43;2.80;;;10.10;99.60;;;;;;4951597;28;20066;-82
2021/04/30 09:20:03;;;;;;;7.05;3.55;;;10.20;96.60;;;;;;4957690;28;20557;-83
2021/04/30 09:22:36;;;;;;;6.10;3.50;;;10.30;97.50;;;;;;4984886;28;20494;-83
2021/04/30 09:25:23;;;;;;;6.88;3.13;;;10.30;98.40;;;;;;4981958;28;20050;-83
2021/04/30 09:27:53;;;;;;;6.03;2.97;;;10.40;98.30;;;;;;4970080;28;20066;-83
2021/04/30 09:30:30;;;;;;;9.52;4.07;;;10.50;97.10;;;;;;4969784;28;20177;-83
2021/04/30 09:33:01;;;;;;;12.40;4.63;;;10.60;96.10;;;;;;4987124;28;20526;-83
2021/04/30 09:35:35;;;;;;;4.63;2.53;;;10.60;96.70;;;;;;4987171;28;20059;-83
2021/04/30 09:38:26;;;;;;;36.17;6.07;;;10.60;95.20;;;;;;4972210;28;20086;-83
2021/04/30 09:41:07;;;;;;;;;;;10.60;93.70;;;;;;4987330;28;20054;-83
2021/04/30 09:43:40;;;;;;;8.27;3.25;;;10.50;93.70;;;;;;4985460;28;19922;-83
2021/04/30 09:46:23;;;;;;;5.25;2.17;;;10.50;94.80;;;;;;4986113;28;20062;-83
2021/04/30 09:49:13;;;;;;;7.60;3.03;;;10.60;93.60;;;;;;4971511;28;20768;-83
2021/04/30 09:51:45;;;;;;;11.45;2.90;;;10.70;93.90;;;;;;4951353;28;20924;-83
2021/04/30 09:54:24;;;;;;;3.03;2.45;;;10.90;94.10;;;;;;4984311;28;20055;-83
2021/04/30 09:57:26;;;;;;;20.63;3.42;;;11.00;93.50;;;;;;4970530;28;20058;-83
2021/04/30 09:59:58;;;;;;;5.20;3.13;;;11.20;92.90;;;;;;4966356;28;20066;-83
2021/04/30 10:02:29;;;;;;;3.30;2.20;;;11.40;92.40;;;;;;4970909;28;20055;-82
2021/04/30 10:05:06;;;;;;;4.53;2.72;;;11.60;92.40;;;;;;4986523;28;20387;-83
2021/04/30 10:07:35;;;;;;;5.07;2.40;;;11.80;91.80;;;;;;4973402;28;20057;-84
2021/04/30 10:10:23;;;;;;;4.72;2.30;;;12.00;91.40;;;;;;4972061;28;20070;-82
2021/04/30 10:12:57;;;;;;;3.97;2.45;;;12.30;90.00;;;;;;4983375;28;20055;-83
2021/04/30 10:15:25;;;;;;;3.58;2.42;;;12.40;89.70;;;;;;4979808;28;20047;-82
2021/04/30 10:17:57;;;;;;;12.82;2.95;;;12.60;89.30;;;;;;4982382;28;20055;-84
2021/04/30 10:20:24;;;;;;;5.95;2.55;;;12.60;87.60;;;;;;4987959;28;20051;-83
2021/04/30 10:22:53;;;;;;;8.23;3.00;;;12.70;86.10;;;;;;4967675;28;20062;-84
2021/04/30 10:25:21;;;;;;;9.15;2.90;;;12.80;85.30;;;;;;4982916;28;20399;-84
2021/04/30 10:27:53;;;;;;;7.63;2.70;;;12.80;84.30;;;;;;4973896;28;20598;-83
2021/04/30 10:30:27;;;;;;;3.67;2.45;;;13.00;81.80;;;;;;4968447;28;20051;-84
2021/04/30 10:33:15;;;;;;;5.97;2.00;;;13.10;81.80;;;;;;4987496;28;20623;-83
2021/04/30 10:36:05;;;;;;;4.72;3.03;;;13.30;79.80;;;;;;4969444;28;20058;-83
2021/04/30 10:38:41;;;;;;;5.65;2.65;;;13.40;78.30;;;;;;4969306;28;20062;-84
2021/04/30 10:41:12;;;;;;;4.32;2.15;;;13.40;77.80;;;;;;4983868;28;20042;-84
2021/04/30 10:43:40;;;;;;;5.17;2.40;;;13.40;75.90;;;;;;4969842;28;20588;-83
2021/04/30 10:46:21;;;;;;;2.90;2.33;;;13.30;75.00;;;;;;4973132;28;20300;-83
2021/04/30 10:49:07;;;;;;;6.43;2.58;;;13.20;74.00;;;;;;4984402;28;20514;-83
2021/04/30 10:51:36;;;;;;;7.28;3.17;;;13.20;73.30;;;;;;4960302;28;20097;-83
2021/04/30 10:54:31;;;;;;;5.97;2.20;;;13.20;74.00;;;;;;4973693;28;20059;-83
2021/04/30 10:56:58;;;;;;;4.20;2.42;;;13.10;73.20;;;;;;4991181;28;20050;-83
2021/04/30 10:59:46;;;;;;;7.18;3.10;;;13.10;74.50;;;;;;4984792;28;20074;-83
2021/04/30 11:02:27;;;;;;;4.07;2.20;;;13.10;71.90;;;;;;5007814;28;20061;-83
2021/04/30 11:05:11;;;;;;;7.43;2.55;;;13.10;71.60;;;;;;4991787;28;20043;-84
2021/04/30 11:07:51;;;;;;;5.32;2.30;;;13.10;72.40;;;;;;4995374;28;20046;-83
2021/04/30 11:10:31;;;;;;;4.65;2.17;;;13.10;72.90;;;;;;4993355;28;20069;-83
2021/04/30 11:13:15;;;;;;;4.60;2.42;;;13.20;72.40;;;;;;4989321;28;20421;-84
2021/04/30 11:15:50;;;;;;;8.63;2.72;;;13.20;71.10;;;;;;4989994;28;20411;-83
2021/04/30 11:18:27;;;;;;;8.55;3.00;;;13.30;71.10;;;;;;4973276;28;20470;-84
2021/04/30 11:20:59;;;;;;;3.00;2.40;;;13.20;72.30;;;;;;4990975;28;20073;-84
2021/04/30 11:23:40;;;;;;;5.70;3.20;;;13.20;72.40;;;;;;4990536;28;20505;-83
2021/04/30 11:26:36;;;;;;;5.60;2.70;;;13.20;72.30;;;;;;4977719;28;20046;-85
2021/04/30 11:29:08;;;;;;;7.10;2.30;;;13.20;71.40;;;;;;4986406;28;20058;-84
2021/04/30 11:31:41;;;;;;;5.20;2.78;;;12.20;71.80;;;;;;5001369;28;20050;-84
2021/04/30 11:34:12;;;;;;;6.25;2.63;;;13.20;72.40;;;;;;4973250;28;20065;-83
2021/04/30 11:36:40;;;;;;;4.63;2.45;;;13.20;71.90;;;;;;4970832;28;20051;-84
2021/04/30 11:39:28;;;;;;;7.35;2.58;;;13.30;71.80;;;;;;4986676;28;20058;-84
2021/04/30 11:42:31;;;;;;;8.65;2.60;;;13.40;70.80;;;;;;4983850;28;20060;-83
2021/04/30 11:45:01;;;;;;;7.63;3.70;;;13.60;70.30;;;;;;5000925;28;20510;-84
2021/04/30 11:47:31;;;;;;;7.82;2.80;;;13.70;70.80;;;;;;4996412;28;20054;-83
2021/04/30 11:50:12;;;;;;;5.13;2.33;;;13.90;71.50;;;;;;4976173;28;20503;-84
2021/04/30 11:52:46;;;;;;;7.15;2.58;;;14.10;71.00;;;;;;4992039;28;20050;-84
2021/04/30 11:55:17;;;;;;;4.28;3.00;;;14.40;70.70;;;;;;4986565;28;20047;-84
2021/04/30 11:57:55;;;;;;;6.15;2.75;;;14.60;69.40;;;;;;4971184;28;20046;-83
2021/04/30 12:00:28;;;;;;;5.28;2.63;;;13.60;66.60;;;;;;4984138;28;20105;-84
2021/04/30 12:03:01;;;;;;;7.25;2.90;;;14.90;67.50;;;;;;4982073;28;20366;-85
2021/04/30 12:05:29;;;;;;;6.47;2.55;;;14.90;67.30;;;;;;4635945;28;10000352;-84
2021/04/30 12:07:57;;;;;;;13.38;3.20;;;14.90;66.60;;;;;;4986351;28;20065;-84
2021/04/30 12:10:32;;;;;;;4.30;2.30;;;14.80;66.20;;;;;;4985838;28;20397;-84
2021/04/30 12:13:00;;;;;;;11.45;3.10;;;14.60;64.30;;;;;;4981177;28;20047;-83
2021/04/30 12:15:37;;;;;;;3.67;2.50;;;14.40;65.70;;;;;;4984464;28;20469;-84
2021/04/30 12:18:05;;;;;;;4.38;2.95;;;14.20;64.70;;;;;;4968501;28;20572;-85
2021/04/30 12:20:36;;;;;;;7.88;2.80;;;14.00;64.50;;;;;;4987311;28;20050;-84
2021/04/30 12:23:11;;;;;;;4.60;2.63;;;13.90;64.30;;;;;;4984273;28;20054;-83
2021/04/30 12:25:44;;;;;;;6.18;3.35;;;13.70;65.80;;;;;;4983237;28;20054;-84
2021/04/30 12:28:20;;;;;;;4.78;2.47;;;13.60;67.20;;;;;;4985859;28;20426;-84
2021/04/30 12:30:51;;;;;;;7.57;3.88;;;13.50;67.40;;;;;;4967774;28;20050;-83
2021/04/30 12:33:38;;;;;;;4.28;3.10;;;13.50;67.40;;;;;;4966205;28;20043;-83
2021/04/30 12:36:18;;;;;;;6.85;3.60;;;11.80;69.00;;;;;;4972095;28;20073;-84
2021/04/30 12:38:51;;;;;;;4.90;3.22;;;13.20;70.00;;;;;;4985016;28;20413;-86
2021/04/30 12:41:26;;;;;;;6.03;3.47;;;13.20;70.40;;;;;;4985060;28;20061;-83
2021/04/30 12:44:06;;;;;;;9.35;2.80;;;13.00;70.60;;;;;;4981240;28;20050;-82
2021/04/30 12:46:40;;;;;;;7.68;3.35;;;12.70;72.80;;;;;;4988338;28;20399;-82
2021/04/30 12:49:16;;;;;;;6.35;3.25;;;12.80;72.40;;;;;;4988866;28;20065;-82
2021/04/30 12:51:51;;;;;;;9.35;3.50;;;13.00;72.30;;;;;;4972741;28;20038;-83
2021/04/30 12:54:36;;;;;;;6.80;3.25;;;13.30;71.50;;;;;;4948143;28;20126;-83
2021/04/30 12:57:08;;;;;;;7.95;3.25;;;13.50;71.10;;;;;;4972311;28;20058;-82
2021/04/30 13:00:01;;;;;;;6.45;3.17;;;13.80;70.80;;;;;;4966371;28;20050;-82
2021/04/30 13:02:31;;;;;;;7.53;3.15;;;14.20;68.20;;;;;;4975244;28;20053;-82